Weather at Happy Valley Airport [CLOSED]

Public forecast

Using degrees Fahrenheit for public forecast. Weather courtesy of forecast.io.

Closest aviation weather report (METAR) to Happy Valley Airport

Closest report is Portland Troutdale Airport, 7.5 nm (13.8 km) NE. Retrieved 2021/06/21 09:53 UTC (18 minutes ago):

KTTD 210953Z AUTO 00000KT 10SM CLR 19/14 A2982 RMK AO2 SLP098 T01890144

Closest aviation forecast (TAF) to Happy Valley Airport

Closest forecast is Portland Troutdale Airport, 7.5 nm (13.8 km) NE. Retrieved 2021/06/21 06:22 UTC (4 hours ago):

TAF KTTD 210520Z 2106/2206 07005KT P6SM SKC FM211600 VRB05KT P6SM SKC FM212200 29004KT P6SM SKC